Terminal Aerodrome Forecast
Issued by NWS

Home | Current Version | Previous Version | Text Only | Print | Product List | Glossary On
Versions: 1 2 3 4 5 6 7 8 9 10 11 12 13 14 15 16
272
FTUS44 KBMX 232340
TAFEET
TAF
KEET 232340Z 2400/2424 30006KT P6SM VCSH BKN035 OVC060
     FM240300 32006KT P6SM OVC025
     FM240700 30008KT 4SM BR OVC015
     FM241700 32008KT P6SM BKN025=

USA.gov is the U.S. government's official web portal to all federal, state and local government web resources and services.